GPD61F KLAX-KSAN
Flight info
| Callsign | GPD61F |
|---|---|
| Flight time | 0h 40m |
| Altitude | 13000 |
| Route | SUMMR2 RIZIN LAX COMIX2 |
| Aircraft | PC12/L-SDFGRWY/S |
Departure
| Time | 2026-05-06 03:46 |
|---|---|
| Airport | Los Angeles International Airport (KLAX) |
Arrival
| Time | 2026-05-06 04:26 |
|---|---|
| Airport | San Diego International Airport (KSAN) |
| Time | Latitude | Longitude | Altitude | Speed | Heading |
|---|---|---|---|---|---|
| 2026-05-06 03:23 | 33.93363 | -118.39998 | 122 ft | 0 kts | 285° |
| 2026-05-06 03:42 | 33.93385 | -118.40055 | 121 ft | 14 kts | 324° |
| 2026-05-06 03:42 | 33.93435 | -118.40040 | 122 ft | 9 kts | 88° |
| 2026-05-06 03:42 | 33.93446 | -118.39897 | 122 ft | 26 kts | 87° |
| 2026-05-06 03:43 | 33.93472 | -118.39651 | 122 ft | 34 kts | 85° |
| 2026-05-06 03:43 | 33.93504 | -118.39339 | 122 ft | 35 kts | 82° |
| 2026-05-06 03:43 | 33.93535 | -118.39038 | 122 ft | 27 kts | 83° |
| 2026-05-06 03:43 | 33.93561 | -118.38781 | 122 ft | 37 kts | 83° |
| 2026-05-06 03:44 | 33.93596 | -118.38449 | 120 ft | 40 kts | 84° |
| 2026-05-06 03:44 | 33.93674 | -118.38280 | 122 ft | 17 kts | 353° |
| 2026-05-06 03:44 | 33.93834 | -118.38304 | 122 ft | 26 kts | 351° |
| 2026-05-06 03:44 | 33.93948 | -118.38382 | 122 ft | 0 kts | 266° |
| 2026-05-06 03:45 | 33.93948 | -118.38389 | 122 ft | 6 kts | 263° |
| 2026-05-06 03:45 | 33.93917 | -118.38687 | 122 ft | 69 kts | 263° |
| 2026-05-06 03:45 | 33.93851 | -118.39438 | 259 ft | 105 kts | 264° |
| 2026-05-06 03:45 | 33.93754 | -118.40373 | 662 ft | 120 kts | 261° |
| 2026-05-06 03:46 | 33.93640 | -118.41420 | 1211 ft | 126 kts | 263° |
| 2026-05-06 03:46 | 33.93539 | -118.42458 | 1802 ft | 128 kts | 263° |
| 2026-05-06 03:46 | 33.93419 | -118.43521 | 2412 ft | 128 kts | 263° |
| 2026-05-06 03:46 | 33.93182 | -118.44567 | 2948 ft | 138 kts | 238° |
| 2026-05-06 03:47 | 33.92380 | -118.45233 | 3516 ft | 141 kts | 209° |
| 2026-05-06 03:47 | 33.91504 | -118.45833 | 3919 ft | 156 kts | 212° |
| 2026-05-06 03:47 | 33.90495 | -118.46547 | 4030 ft | 170 kts | 212° |
| 2026-05-06 03:47 | 33.89549 | -118.47215 | 4155 ft | 158 kts | 214° |
| 2026-05-06 03:48 | 33.88591 | -118.47896 | 4286 ft | 161 kts | 212° |
| 2026-05-06 03:48 | 33.87578 | -118.48630 | 4400 ft | 183 kts | 213° |
| 2026-05-06 03:48 | 33.86537 | -118.49382 | 5192 ft | 168 kts | 213° |
| 2026-05-06 03:48 | 33.85525 | -118.50086 | 5882 ft | 174 kts | 206° |
| 2026-05-06 03:49 | 33.84316 | -118.50003 | 6489 ft | 177 kts | 146° |
| 2026-05-06 03:49 | 33.83623 | -118.48930 | 7468 ft | 157 kts | 109° |
| 2026-05-06 03:49 | 33.83473 | -118.47652 | 8196 ft | 155 kts | 88° |
| 2026-05-06 03:49 | 33.83377 | -118.46329 | 8793 ft | 167 kts | 92° |
| 2026-05-06 03:50 | 33.83217 | -118.44915 | 8962 ft | 195 kts | 98° |
| 2026-05-06 03:50 | 33.82998 | -118.43168 | 8968 ft | 224 kts | 98° |
| 2026-05-06 03:50 | 33.82763 | -118.41257 | 8967 ft | 238 kts | 98° |
| 2026-05-06 03:50 | 33.82519 | -118.39261 | 8963 ft | 243 kts | 98° |
| 2026-05-06 03:51 | 33.82272 | -118.37242 | 8964 ft | 245 kts | 98° |
| 2026-05-06 03:51 | 33.82023 | -118.35212 | 8960 ft | 246 kts | 98° |
| 2026-05-06 03:51 | 33.81773 | -118.33181 | 8965 ft | 246 kts | 98° |
| 2026-05-06 03:51 | 33.81522 | -118.31144 | 8960 ft | 246 kts | 98° |
| 2026-05-06 03:52 | 33.81271 | -118.29110 | 8959 ft | 246 kts | 98° |
| 2026-05-06 03:52 | 33.81019 | -118.27073 | 8960 ft | 246 kts | 98° |
| 2026-05-06 03:52 | 33.80768 | -118.25038 | 8960 ft | 246 kts | 98° |
| 2026-05-06 03:52 | 33.80518 | -118.23025 | 8964 ft | 246 kts | 98° |
| 2026-05-06 03:53 | 33.80266 | -118.20994 | 8960 ft | 246 kts | 98° |
| 2026-05-06 03:53 | 33.80014 | -118.18964 | 8999 ft | 245 kts | 98° |
| 2026-05-06 03:53 | 33.79761 | -118.16931 | 8958 ft | 246 kts | 98° |
| 2026-05-06 03:53 | 33.79520 | -118.14995 | 9012 ft | 246 kts | 97° |
| 2026-05-06 03:54 | 33.79356 | -118.13650 | 8938 ft | 246 kts | 96° |
| 2026-05-06 03:54 | 33.79100 | -118.11608 | 8943 ft | 247 kts | 100° |
| 2026-05-06 03:54 | 33.78562 | -118.09666 | 8945 ft | 246 kts | 118° |
| 2026-05-06 03:54 | 33.77547 | -118.08014 | 8943 ft | 246 kts | 136° |
| 2026-05-06 03:55 | 33.76170 | -118.06818 | 8943 ft | 244 kts | 154° |
| 2026-05-06 03:55 | 33.74565 | -118.06184 | 8945 ft | 243 kts | 172° |
| 2026-05-06 03:55 | 33.72887 | -118.06153 | 8943 ft | 241 kts | 187° |
| 2026-05-06 03:55 | 33.71224 | -118.06372 | 8947 ft | 241 kts | 187° |
| 2026-05-06 03:56 | 33.69555 | -118.06579 | 8949 ft | 241 kts | 187° |
| 2026-05-06 03:56 | 33.67886 | -118.06787 | 8950 ft | 241 kts | 187° |
| 2026-05-06 03:56 | 33.66217 | -118.06997 | 8951 ft | 241 kts | 187° |
| 2026-05-06 03:56 | 33.64545 | -118.07210 | 8946 ft | 241 kts | 187° |
| 2026-05-06 03:57 | 33.62873 | -118.07424 | 8946 ft | 241 kts | 187° |
| 2026-05-06 03:57 | 33.61206 | -118.07640 | 8945 ft | 241 kts | 187° |
| 2026-05-06 03:57 | 33.59537 | -118.07858 | 8944 ft | 241 kts | 187° |
| 2026-05-06 03:57 | 33.57869 | -118.08077 | 8944 ft | 241 kts | 188° |
| 2026-05-06 03:58 | 33.56228 | -118.07984 | 8940 ft | 243 kts | 162° |
| 2026-05-06 03:58 | 33.54925 | -118.06727 | 8941 ft | 246 kts | 123° |
| 2026-05-06 03:58 | 33.54302 | -118.04819 | 8957 ft | 247 kts | 108° |
| 2026-05-06 03:58 | 33.53738 | -118.02876 | 8952 ft | 247 kts | 112° |
| 2026-05-06 03:59 | 33.52977 | -118.01074 | 7821 ft | 250 kts | 125° |
| 2026-05-06 03:59 | 33.51820 | -117.99472 | 6974 ft | 250 kts | 135° |
| 2026-05-06 03:59 | 33.50984 | -117.97889 | 6938 ft | 210 kts | 107° |
| 2026-05-06 03:59 | 33.50651 | -117.96118 | 6945 ft | 224 kts | 101° |
| 2026-05-06 04:00 | 33.50342 | -117.94230 | 6954 ft | 235 kts | 101° |
| 2026-05-06 04:00 | 33.50028 | -117.92297 | 6963 ft | 238 kts | 101° |
| 2026-05-06 04:00 | 33.49710 | -117.90341 | 6960 ft | 240 kts | 101° |
| 2026-05-06 04:00 | 33.49391 | -117.88375 | 6961 ft | 240 kts | 101° |
| 2026-05-06 04:01 | 33.49077 | -117.86435 | 6961 ft | 240 kts | 101° |
| 2026-05-06 04:01 | 33.48406 | -117.84639 | 6938 ft | 239 kts | 134° |
| 2026-05-06 04:01 | 33.47063 | -117.83502 | 6948 ft | 236 kts | 151° |
| 2026-05-06 04:01 | 33.45676 | -117.82435 | 6952 ft | 237 kts | 143° |
| 2026-05-06 04:02 | 33.44468 | -117.81083 | 6954 ft | 238 kts | 133° |
| 2026-05-06 04:02 | 33.43372 | -117.79593 | 6956 ft | 239 kts | 132° |
| 2026-05-06 04:02 | 33.42252 | -117.78127 | 6958 ft | 238 kts | 134° |
| 2026-05-06 04:02 | 33.41105 | -117.76692 | 6958 ft | 239 kts | 135° |
| 2026-05-06 04:03 | 33.39959 | -117.75257 | 6959 ft | 239 kts | 134° |
| 2026-05-06 04:03 | 33.38814 | -117.73810 | 6959 ft | 239 kts | 134° |
| 2026-05-06 04:03 | 33.37673 | -117.72368 | 6959 ft | 239 kts | 134° |
| 2026-05-06 04:03 | 33.36544 | -117.70943 | 6960 ft | 239 kts | 134° |
| 2026-05-06 04:04 | 33.35386 | -117.69483 | 6959 ft | 239 kts | 134° |
| 2026-05-06 04:04 | 33.34249 | -117.68051 | 6904 ft | 240 kts | 134° |
| 2026-05-06 04:04 | 33.33101 | -117.66604 | 6903 ft | 239 kts | 134° |
| 2026-05-06 04:04 | 33.31955 | -117.65161 | 6903 ft | 239 kts | 134° |
| 2026-05-06 04:05 | 33.30811 | -117.63721 | 6903 ft | 239 kts | 134° |
| 2026-05-06 04:05 | 33.29670 | -117.62283 | 6903 ft | 239 kts | 134° |
| 2026-05-06 04:05 | 33.28525 | -117.60845 | 6902 ft | 239 kts | 134° |
| 2026-05-06 04:05 | 33.27382 | -117.59406 | 6903 ft | 238 kts | 134° |
| 2026-05-06 04:06 | 33.26237 | -117.57968 | 6902 ft | 238 kts | 134° |
| 2026-05-06 04:06 | 33.25093 | -117.56531 | 6902 ft | 238 kts | 134° |
| 2026-05-06 04:06 | 33.23951 | -117.55095 | 6902 ft | 238 kts | 134° |
| 2026-05-06 04:06 | 33.22806 | -117.53659 | 6902 ft | 238 kts | 134° |
| 2026-05-06 04:07 | 33.21662 | -117.52223 | 6903 ft | 239 kts | 134° |
| 2026-05-06 04:07 | 33.20519 | -117.50791 | 6902 ft | 238 kts | 134° |
| 2026-05-06 04:07 | 33.19367 | -117.49345 | 6903 ft | 239 kts | 134° |
| 2026-05-06 04:07 | 33.18230 | -117.47920 | 6902 ft | 239 kts | 134° |
| 2026-05-06 04:08 | 33.17082 | -117.46482 | 6902 ft | 238 kts | 134° |
| 2026-05-06 04:08 | 33.15952 | -117.45067 | 6903 ft | 239 kts | 134° |
| 2026-05-06 04:08 | 33.14807 | -117.43634 | 6903 ft | 239 kts | 135° |
| 2026-05-06 04:08 | 33.13623 | -117.42258 | 6896 ft | 237 kts | 144° |
| 2026-05-06 04:09 | 33.12166 | -117.41354 | 6892 ft | 236 kts | 157° |
| 2026-05-06 04:09 | 33.10671 | -117.40536 | 6894 ft | 236 kts | 156° |
| 2026-05-06 04:09 | 33.09179 | -117.39703 | 6896 ft | 237 kts | 156° |
| 2026-05-06 04:09 | 33.07689 | -117.38871 | 6896 ft | 237 kts | 156° |
| 2026-05-06 04:10 | 33.06195 | -117.38041 | 6897 ft | 237 kts | 156° |
| 2026-05-06 04:10 | 33.04703 | -117.37213 | 6897 ft | 237 kts | 156° |
| 2026-05-06 04:10 | 33.03205 | -117.36380 | 6898 ft | 237 kts | 156° |
| 2026-05-06 04:10 | 33.01712 | -117.35551 | 6897 ft | 237 kts | 156° |
| 2026-05-06 04:11 | 33.00221 | -117.34723 | 6897 ft | 237 kts | 156° |
| 2026-05-06 04:11 | 32.98726 | -117.33893 | 6897 ft | 237 kts | 156° |
| 2026-05-06 04:11 | 32.97234 | -117.33066 | 6898 ft | 237 kts | 156° |
| 2026-05-06 04:11 | 32.95751 | -117.32204 | 6894 ft | 236 kts | 150° |
| 2026-05-06 04:12 | 32.94651 | -117.30814 | 6887 ft | 239 kts | 116° |
| 2026-05-06 04:12 | 32.94186 | -117.28916 | 6893 ft | 239 kts | 102° |
| 2026-05-06 04:12 | 32.93865 | -117.27016 | 6603 ft | 235 kts | 101° |
| 2026-05-06 04:12 | 32.93548 | -117.25056 | 6236 ft | 247 kts | 101° |
| 2026-05-06 04:13 | 32.93224 | -117.23037 | 5934 ft | 247 kts | 101° |
| 2026-05-06 04:13 | 32.92907 | -117.21057 | 5901 ft | 240 kts | 101° |
| 2026-05-06 04:13 | 32.92596 | -117.19118 | 5900 ft | 238 kts | 101° |
| 2026-05-06 04:13 | 32.92287 | -117.17186 | 5900 ft | 237 kts | 101° |
| 2026-05-06 04:14 | 32.91978 | -117.15260 | 5898 ft | 237 kts | 101° |
| 2026-05-06 04:14 | 32.91669 | -117.13330 | 5897 ft | 237 kts | 101° |
| 2026-05-06 04:14 | 32.91362 | -117.11406 | 5898 ft | 237 kts | 101° |
| 2026-05-06 04:14 | 32.91056 | -117.09479 | 5897 ft | 237 kts | 101° |
| 2026-05-06 04:15 | 32.90748 | -117.07546 | 5897 ft | 237 kts | 101° |
| 2026-05-06 04:15 | 32.90338 | -117.05658 | 5889 ft | 236 kts | 114° |
| 2026-05-06 04:15 | 32.89578 | -117.03932 | 5889 ft | 236 kts | 120° |
| 2026-05-06 04:15 | 32.88756 | -117.02240 | 5891 ft | 236 kts | 121° |
| 2026-05-06 04:16 | 32.87930 | -117.00551 | 5892 ft | 236 kts | 121° |
| 2026-05-06 04:16 | 32.87104 | -116.98866 | 5892 ft | 236 kts | 121° |
| 2026-05-06 04:16 | 32.86287 | -116.97199 | 5812 ft | 239 kts | 121° |
| 2026-05-06 04:16 | 32.85441 | -116.95475 | 5559 ft | 243 kts | 121° |
| 2026-05-06 04:17 | 32.84589 | -116.93747 | 5307 ft | 243 kts | 121° |
| 2026-05-06 04:17 | 32.83705 | -116.92035 | 5054 ft | 241 kts | 129° |
| 2026-05-06 04:17 | 32.82314 | -116.91028 | 4868 ft | 235 kts | 171° |
| 2026-05-06 04:17 | 32.80717 | -116.91083 | 4870 ft | 228 kts | 189° |
| 2026-05-06 04:18 | 32.79157 | -116.91366 | 4875 ft | 227 kts | 191° |
| 2026-05-06 04:18 | 32.77602 | -116.91667 | 4879 ft | 227 kts | 191° |
| 2026-05-06 04:18 | 32.76145 | -116.92195 | 4838 ft | 205 kts | 212° |
| 2026-05-06 04:18 | 32.75084 | -116.93151 | 4647 ft | 179 kts | 218° |
| 2026-05-06 04:19 | 32.74088 | -116.93870 | 4553 ft | 158 kts | 209° |
| 2026-05-06 04:19 | 32.73107 | -116.94453 | 4164 ft | 158 kts | 208° |
| 2026-05-06 04:19 | 32.72139 | -116.95016 | 3870 ft | 153 kts | 208° |
| 2026-05-06 04:19 | 32.71247 | -116.95533 | 3807 ft | 137 kts | 208° |
| 2026-05-06 04:20 | 32.70371 | -116.96044 | 3839 ft | 148 kts | 208° |
| 2026-05-06 04:20 | 32.69481 | -116.96578 | 3769 ft | 148 kts | 212° |
| 2026-05-06 04:20 | 32.68781 | -116.97447 | 3731 ft | 147 kts | 241° |
| 2026-05-06 04:20 | 32.68506 | -116.98586 | 3694 ft | 147 kts | 268° |
| 2026-05-06 04:21 | 32.68684 | -116.99780 | 3625 ft | 152 kts | 287° |
| 2026-05-06 04:21 | 32.69004 | -117.01066 | 3393 ft | 170 kts | 285° |
| 2026-05-06 04:21 | 32.69324 | -117.02385 | 3131 ft | 174 kts | 286° |
| 2026-05-06 04:21 | 32.69662 | -117.03774 | 2854 ft | 175 kts | 286° |
| 2026-05-06 04:22 | 32.69987 | -117.05101 | 2584 ft | 162 kts | 286° |
| 2026-05-06 04:22 | 32.70290 | -117.06338 | 2341 ft | 148 kts | 286° |
| 2026-05-06 04:22 | 32.70551 | -117.07406 | 2127 ft | 138 kts | 286° |
| 2026-05-06 04:23 | 32.71079 | -117.09588 | 1717 ft | 146 kts | 285° |
| 2026-05-06 04:23 | 32.71356 | -117.10714 | 1480 ft | 132 kts | 286° |
| 2026-05-06 04:23 | 32.71597 | -117.11710 | 1308 ft | 124 kts | 285° |
| 2026-05-06 04:23 | 32.71823 | -117.12640 | 1114 ft | 106 kts | 286° |
| 2026-05-06 04:24 | 32.72011 | -117.13416 | 935 ft | 92 kts | 285° |
| 2026-05-06 04:24 | 32.72179 | -117.14119 | 813 ft | 87 kts | 285° |
| 2026-05-06 04:24 | 32.72349 | -117.14828 | 693 ft | 91 kts | 285° |
| 2026-05-06 04:24 | 32.72534 | -117.15589 | 511 ft | 103 kts | 284° |
| 2026-05-06 04:25 | 32.72730 | -117.16375 | 364 ft | 94 kts | 285° |
| 2026-05-06 04:25 | 32.72904 | -117.17097 | 214 ft | 92 kts | 283° |
| 2026-05-06 04:25 | 32.73084 | -117.17843 | 105 ft | 96 kts | 283° |
| 2026-05-06 04:25 | 32.73270 | -117.18584 | 24 ft | 84 kts | 288° |
| 2026-05-06 04:26 | 32.73409 | -117.19196 | 19 ft | 64 kts | 287° |
| 2026-05-06 04:26 | 32.73442 | -117.19440 | 25 ft | 3 kts | 244° |
| 2026-05-06 04:26 | 32.73414 | -117.19491 | 25 ft | 5 kts | 200° |
| 2026-05-06 04:26 | 32.73413 | -117.19492 | 25 ft | 0 kts | 196° |
| 2026-05-06 04:27 | 32.73409 | -117.19493 | 25 ft | 5 kts | 196° |
| 2026-05-06 04:27 | 32.73368 | -117.19429 | 23 ft | 20 kts | 101° |